createdAt,value
2023-10-11T00:01:24.214Z,98888.14
2023-10-11T00:03:56.133Z,98890.41
2023-10-11T00:06:27.455Z,98887.26
2023-10-11T00:08:56.135Z,98886.39
2023-10-11T00:11:29.407Z,98881.84
2023-10-11T00:13:58.506Z,98879.73
2023-10-11T00:16:29.050Z,98875.38
2023-10-11T00:18:57.881Z,98874.68
2023-10-11T00:21:41.914Z,98873.64
2023-10-11T00:24:11.094Z,98871.19
2023-10-11T00:26:42.454Z,98865.41
2023-10-11T00:29:13.374Z,98866.30
2023-10-11T00:31:42.557Z,98874.30
2023-10-11T00:34:14.312Z,98876.73
2023-10-11T00:36:46.889Z,98872.19
2023-10-11T00:39:19.376Z,98869.77
2023-10-11T00:41:50.867Z,98866.65
2023-10-11T00:44:22.265Z,98863.35
2023-10-11T00:46:57.429Z,98862.32
2023-10-11T00:49:36.937Z,98859.20
2023-10-11T00:52:08.444Z,98858.51
2023-10-11T00:54:45.327Z,98856.77
2023-10-11T00:57:17.252Z,98860.44
2023-10-11T00:59:46.432Z,98856.59
2023-10-11T01:02:16.174Z,98852.72
2023-10-11T01:04:46.033Z,98850.80
2023-10-11T01:07:15.148Z,98847.81
2023-10-11T01:09:45.211Z,98843.98
2023-10-11T01:12:15.251Z,98847.47
2023-10-11T01:15:01.009Z,98846.60
2023-10-11T01:17:33.393Z,98844.88
2023-10-11T01:20:03.297Z,98848.39
2023-10-11T01:22:32.609Z,98848.05
2023-10-11T01:25:02.601Z,98852.08
2023-10-11T01:27:34.433Z,98849.48
2023-10-11T01:30:05.102Z,98846.72
2023-10-11T01:32:36.333Z,98843.05
2023-10-11T01:35:12.847Z,98844.45
2023-10-11T01:37:45.571Z,98843.23
2023-10-11T01:40:22.119Z,98842.02
2023-10-11T01:42:53.899Z,98840.64
2023-10-11T01:45:24.587Z,98839.78
2023-10-11T01:47:58.277Z,98842.41
2023-10-11T01:50:29.527Z,98841.52
2023-10-11T01:52:58.109Z,98839.95
2023-10-11T01:55:26.961Z,98844.15
2023-10-11T01:57:55.729Z,98845.02
2023-10-11T02:00:31.233Z,98843.63
2023-10-11T02:03:00.231Z,98845.89
2023-10-11T02:05:33.011Z,98846.25
2023-10-11T02:08:05.842Z,98845.74
2023-10-11T02:10:38.240Z,98843.30
2023-10-11T02:13:11.173Z,98843.83
2023-10-11T02:15:41.786Z,98844.37
2023-10-11T02:18:12.117Z,98841.59
2023-10-11T02:20:46.014Z,98840.20
2023-10-11T02:23:15.356Z,98838.64
2023-10-11T02:25:45.347Z,98837.94
2023-10-11T02:28:16.424Z,98836.55
2023-10-11T02:30:45.180Z,98837.77
2023-10-11T02:33:13.745Z,98838.65
2023-10-11T02:35:57.321Z,98834.47
2023-10-11T02:38:27.341Z,98830.64
2023-10-11T02:40:59.026Z,98829.95
2023-10-11T02:43:28.170Z,98825.80
2023-10-11T02:46:00.783Z,98827.39
2023-10-11T02:48:29.649Z,98830.36
2023-10-11T02:51:00.209Z,98832.10
2023-10-11T02:53:30.344Z,98830.37
2023-10-11T02:56:00.622Z,98829.34
2023-10-11T02:58:31.711Z,98833.73
2023-10-11T03:01:19.696Z,98828.52
2023-10-11T03:03:56.010Z,98825.95
2023-10-11T03:06:28.876Z,98828.71
2023-10-11T03:08:57.660Z,98828.17
2023-10-11T03:11:27.468Z,98828.35
2023-10-11T03:13:56.628Z,98825.39
2023-10-11T03:16:25.805Z,98822.42
2023-10-11T03:18:54.897Z,98814.59
2023-10-11T03:21:35.063Z,98814.94
2023-10-11T03:24:07.490Z,98812.51
2023-10-11T03:26:40.092Z,98813.74
2023-10-11T03:29:19.868Z,98816.20
2023-10-11T03:31:49.407Z,98819.02
2023-10-11T03:34:21.215Z,98814.31
2023-10-11T03:37:01.004Z,98810.48
2023-10-11T03:39:38.781Z,98813.11
2023-10-11T03:42:09.211Z,98814.17
2023-10-11T03:44:41.702Z,98807.56
2023-10-11T03:47:10.721Z,98808.79
2023-10-11T03:49:42.414Z,98805.13
2023-10-11T03:52:24.457Z,98804.95
2023-10-11T03:54:56.316Z,98801.48
2023-10-11T03:57:24.826Z,98797.30
2023-10-11T03:59:54.014Z,98795.39
2023-10-11T04:02:24.598Z,98797.67
2023-10-11T04:04:53.182Z,98794.20
2023-10-11T04:07:24.491Z,98788.79
2023-10-11T04:09:53.339Z,98790.88
2023-10-11T04:12:26.598Z,98791.06
2023-10-11T04:14:59.310Z,98792.64
2023-10-11T04:17:28.211Z,98788.64
2023-10-11T04:20:18.646Z,98788.63
2023-10-11T04:23:03.175Z,98792.11
2023-10-11T04:25:34.237Z,98792.99
2023-10-11T04:28:04.375Z,98794.73
2023-10-11T04:30:46.019Z,98790.75
2023-10-11T04:33:22.325Z,98793.71
2023-10-11T04:35:57.864Z,98794.23
2023-10-11T04:38:26.557Z,98794.95
2023-10-11T04:40:55.517Z,98796.17
2023-10-11T04:43:23.964Z,98795.30
2023-10-11T04:46:01.624Z,98791.12
2023-10-11T04:48:41.587Z,98793.20
2023-10-11T04:51:30.929Z,98788.69
2023-10-11T04:54:00.483Z,98784.67
2023-10-11T04:56:42.011Z,98782.59
2023-10-11T04:59:13.808Z,98780.33
2023-10-11T05:02:00.488Z,98780.15
2023-10-11T05:04:33.095Z,98780.15
2023-10-11T05:07:11.544Z,98782.06
2023-10-11T05:09:41.357Z,98785.52
2023-10-11T05:12:14.500Z,98784.98
2023-10-11T05:14:47.107Z,98785.33
2023-10-11T05:17:17.197Z,98782.17
2023-10-11T05:19:58.328Z,98782.67
2023-10-11T05:22:29.935Z,98781.45
2023-10-11T05:25:02.400Z,98779.52
2023-10-11T05:27:35.616Z,98778.48
2023-10-11T05:30:15.457Z,98777.26
2023-10-11T05:32:56.306Z,98773.92
2023-10-11T05:35:47.362Z,98772.67
2023-10-11T05:38:39.445Z,98773.18
2023-10-11T05:41:32.119Z,98769.14
2023-10-11T05:44:20.475Z,98771.54
2023-10-11T05:47:08.116Z,98772.33
2023-10-11T05:49:56.129Z,98774.73
2023-10-11T05:52:27.104Z,98778.16
2023-10-11T05:54:57.362Z,98776.03
2023-10-11T05:57:29.457Z,98772.30
2023-10-11T06:00:08.459Z,98770.33
2023-10-11T06:02:39.732Z,98772.67
2023-10-11T06:05:15.908Z,98772.71
2023-10-11T06:07:44.589Z,98772.45
2023-10-11T06:10:19.447Z,98765.76
2023-10-11T06:12:48.130Z,98763.52
2023-10-11T06:15:20.234Z,98762.71
2023-10-11T06:17:56.895Z,98759.67
2023-10-11T06:20:29.008Z,98757.06
2023-10-11T06:22:58.903Z,98756.69
2023-10-11T06:25:48.000Z,98754.91
2023-10-11T06:28:17.165Z,98757.63
2023-10-11T06:30:49.870Z,98758.77
2023-10-11T06:33:23.308Z,98767.54
2023-10-11T06:35:52.057Z,98764.31
2023-10-11T06:38:23.203Z,98759.88
2023-10-11T06:40:59.857Z,98767.88
2023-10-11T06:43:29.196Z,98769.16
2023-10-11T06:46:03.474Z,98767.38
2023-10-11T06:48:32.389Z,98768.64
2023-10-11T06:51:02.471Z,98772.89
2023-10-11T06:53:31.174Z,98778.30
2023-10-11T06:56:00.502Z,98780.83
2023-10-11T06:58:29.515Z,98782.52
2023-10-11T07:00:59.014Z,98783.76
2023-10-11T07:03:28.724Z,98777.54
2023-10-11T07:06:11.778Z,98775.78
2023-10-11T07:08:54.874Z,98770.43
2023-10-11T07:11:52.063Z,98769.06
2023-10-11T07:14:26.798Z,98765.50
2023-10-11T07:16:55.937Z,98765.94
2023-10-11T07:19:25.049Z,98764.09
2023-10-11T07:21:53.643Z,98760.64
2023-10-11T07:24:34.763Z,98759.30
2023-10-11T07:27:14.279Z,98759.79
2023-10-11T07:29:51.138Z,98757.80
2023-10-11T07:32:21.046Z,98755.50
2023-10-11T07:34:50.508Z,98753.69
2023-10-11T07:37:28.182Z,98754.52
2023-10-11T07:40:02.148Z,98753.75
2023-10-11T07:42:39.791Z,98750.33
2023-10-11T07:45:17.043Z,98749.23
2023-10-11T07:47:53.269Z,98748.09
2023-10-11T07:50:24.578Z,98753.09
2023-10-11T07:52:57.112Z,98755.13
2023-10-11T07:55:27.921Z,98753.52
2023-10-11T07:58:04.587Z,98752.90
2023-10-11T08:00:33.850Z,98754.41
2023-10-11T08:03:06.294Z,98754.08
2023-10-11T08:05:38.506Z,98755.40
2023-10-11T08:08:07.115Z,98754.30
2023-10-11T08:10:35.636Z,98756.66
2023-10-11T08:13:04.703Z,98758.01
2023-10-11T08:15:33.473Z,98759.41
2023-10-11T08:18:05.033Z,98757.88
2023-10-11T08:20:35.517Z,98753.83
2023-10-11T08:23:09.822Z,98758.38
2023-10-11T08:25:41.332Z,98760.73
2023-10-11T08:28:14.505Z,98763.33
2023-10-11T08:30:47.878Z,98764.02
2023-10-11T08:33:16.661Z,98759.84
2023-10-11T08:35:47.818Z,98762.74
2023-10-11T08:38:19.713Z,98758.65
2023-10-11T08:40:52.387Z,98754.05
2023-10-11T08:43:23.099Z,98754.38
2023-10-11T08:46:01.706Z,98759.34
2023-10-11T08:48:31.169Z,98760.50
2023-10-11T08:51:03.882Z,98762.29
2023-10-11T08:53:32.809Z,98759.88
2023-10-11T08:56:01.648Z,98753.51
2023-10-11T08:58:30.731Z,98754.86
2023-10-11T09:01:01.981Z,98751.95
2023-10-11T09:03:34.254Z,98758.63
2023-10-11T09:06:04.122Z,98755.34
2023-10-11T09:08:34.879Z,98751.56
2023-10-11T09:11:17.473Z,98753.21
2023-10-11T09:13:46.227Z,98758.23
2023-10-11T09:16:38.268Z,98762.56
2023-10-11T09:19:10.971Z,98757.48
2023-10-11T09:21:40.758Z,98755.08
2023-10-11T09:24:29.340Z,98755.60
2023-10-11T09:27:17.082Z,98755.05
2023-10-11T09:29:49.484Z,98753.83
2023-10-11T09:32:28.998Z,98750.71
2023-10-11T09:34:58.501Z,98749.29
2023-10-11T09:37:31.090Z,98750.08
2023-10-11T09:40:10.161Z,98751.38
2023-10-11T09:42:44.680Z,98757.97
2023-10-11T09:45:18.709Z,98762.66
2023-10-11T09:47:47.475Z,98764.10
2023-10-11T09:50:17.407Z,98763.73
2023-10-11T09:52:48.796Z,98759.58
2023-10-11T09:55:21.581Z,98761.13
2023-10-11T09:58:09.950Z,98761.94
2023-10-11T10:00:56.502Z,98761.94
2023-10-11T10:03:26.812Z,98756.43
2023-10-11T10:06:12.050Z,98751.86
2023-10-11T10:08:41.727Z,98756.89
2023-10-11T10:11:13.853Z,98760.09
2023-10-11T10:14:26.683Z,98754.62
2023-10-11T10:17:14.650Z,98753.23
2023-10-11T10:19:45.615Z,98755.45
2023-10-11T10:22:21.448Z,98756.52
2023-10-11T10:24:56.287Z,98756.48
2023-10-11T10:27:35.040Z,98756.95
2023-10-11T10:30:09.095Z,98752.66
2023-10-11T10:32:40.150Z,98757.80
2023-10-11T10:35:20.929Z,98757.36
2023-10-11T10:37:57.133Z,98755.09
2023-10-11T10:40:28.150Z,98753.77
2023-10-11T10:43:22.195Z,98756.59
2023-10-11T10:45:52.850Z,98755.92
2023-10-11T10:48:25.258Z,98749.30
2023-10-11T10:51:07.499Z,98748.02
2023-10-11T10:54:05.793Z,98743.31
2023-10-11T10:56:34.584Z,98743.61
2023-10-11T10:59:13.768Z,98743.25
2023-10-11T11:01:48.087Z,98740.23
2023-10-11T11:04:22.507Z,98737.33
2023-10-11T11:06:54.414Z,98733.13
2023-10-11T11:09:30.606Z,98728.02
2023-10-11T11:12:21.808Z,98730.13
2023-10-11T11:15:10.681Z,98723.81
2023-10-11T11:17:48.886Z,98724.34
2023-10-11T11:20:40.751Z,98723.70
2023-10-11T11:23:23.620Z,98724.53
2023-10-11T11:25:55.546Z,98724.77
2023-10-11T11:28:27.638Z,98721.60
2023-10-11T11:30:58.946Z,98722.55
2023-10-11T11:33:36.638Z,98716.68
2023-10-11T11:36:15.921Z,98713.51
2023-10-11T11:38:52.005Z,98713.45
2023-10-11T11:41:27.967Z,98712.76
2023-10-11T11:43:57.940Z,98713.45
2023-10-11T11:46:30.855Z,98711.36
2023-10-11T11:49:01.658Z,98714.23
2023-10-11T11:51:30.685Z,98713.84
2023-10-11T11:53:59.465Z,98713.23
2023-10-11T11:56:30.289Z,98709.52
2023-10-11T11:59:01.865Z,98702.33
2023-10-11T12:01:31.049Z,98699.75
2023-10-11T12:04:00.842Z,98696.59
2023-10-11T12:06:36.972Z,98691.76
2023-10-11T12:09:06.605Z,98688.09
2023-10-11T12:11:37.656Z,98680.73
2023-10-11T12:14:12.134Z,98680.66
2023-10-11T12:16:44.543Z,98677.84
2023-10-11T12:19:15.307Z,98679.68
2023-10-11T12:21:44.462Z,98679.59
2023-10-11T12:24:28.239Z,98677.77
2023-10-11T12:27:02.125Z,98672.73
2023-10-11T12:29:31.179Z,98676.73
2023-10-11T12:32:02.992Z,98681.33
2023-10-11T12:34:33.584Z,98684.38
2023-10-11T12:37:03.867Z,98683.95
2023-10-11T12:39:34.683Z,98684.42
2023-10-11T12:42:03.418Z,98689.88
2023-10-11T12:44:32.127Z,98684.23
2023-10-11T12:47:00.829Z,98680.52
2023-10-11T12:49:29.628Z,98681.25
2023-10-11T12:51:58.190Z,98680.43
2023-10-11T12:54:27.153Z,98676.80
2023-10-11T12:56:55.898Z,98677.96
2023-10-11T12:59:24.456Z,98675.45
2023-10-11T13:01:59.148Z,98674.38
2023-10-11T13:04:38.620Z,98671.27
2023-10-11T13:07:15.388Z,98667.29
2023-10-11T13:09:46.310Z,98666.53
2023-10-11T13:12:19.720Z,98660.84
2023-10-11T13:14:52.634Z,98661.48
2023-10-11T13:17:21.492Z,98656.21
2023-10-11T13:19:52.679Z,98652.91
2023-10-11T13:22:21.639Z,98651.88
2023-10-11T13:24:51.275Z,98656.67
2023-10-11T13:27:23.629Z,98657.15
2023-10-11T13:29:55.648Z,98655.98
2023-10-11T13:32:24.502Z,98653.91
2023-10-11T13:34:53.814Z,98661.88
2023-10-11T13:37:23.793Z,98664.86
2023-10-11T13:39:52.320Z,98666.82
2023-10-11T13:42:20.905Z,98662.95
2023-10-11T13:44:50.071Z,98664.41
2023-10-11T13:47:18.672Z,98660.55
2023-10-11T13:49:49.197Z,98657.20
2023-10-11T13:52:20.997Z,98651.94
2023-10-11T13:54:53.939Z,98642.08
2023-10-11T13:57:25.384Z,98637.65
2023-10-11T13:59:57.969Z,98633.66
2023-10-11T14:02:33.277Z,98625.84
2023-10-11T14:05:05.788Z,98623.50
2023-10-11T14:07:38.545Z,98627.26
2023-10-11T14:10:18.349Z,98624.83
2023-10-11T14:12:47.523Z,98622.41
2023-10-11T14:15:19.807Z,98617.52
2023-10-11T14:17:50.983Z,98619.34
2023-10-11T14:20:26.633Z,98617.78
2023-10-11T14:22:59.519Z,98616.31
2023-10-11T14:25:28.277Z,98612.75
2023-10-11T14:27:56.935Z,98609.48
2023-10-11T14:30:26.089Z,98611.50
2023-10-11T14:32:54.919Z,98605.08
2023-10-11T14:35:26.121Z,98604.21
2023-10-11T14:37:55.209Z,98598.30
2023-10-11T14:40:26.144Z,98599.98
2023-10-11T14:42:54.717Z,98600.11
2023-10-11T14:45:23.776Z,98603.23
2023-10-11T14:47:54.452Z,98610.79
2023-10-11T14:50:27.421Z,98603.88
2023-10-11T14:52:56.534Z,98596.11
2023-10-11T14:55:25.984Z,98597.45
2023-10-11T14:57:55.504Z,98599.32
2023-10-11T15:00:26.544Z,98599.45
2023-10-11T15:02:59.356Z,98602.92
2023-10-11T15:05:38.131Z,98602.56
2023-10-11T15:08:07.167Z,98607.00
2023-10-11T15:10:37.019Z,98608.41
2023-10-11T15:13:06.958Z,98609.64
2023-10-11T15:15:36.009Z,98608.05
2023-10-11T15:18:05.708Z,98605.03
2023-10-11T15:20:34.881Z,98603.08
2023-10-11T15:23:03.488Z,98594.92
2023-10-11T15:25:33.228Z,98595.52
2023-10-11T15:28:01.987Z,98593.52
2023-10-11T15:30:30.899Z,98592.90
2023-10-11T15:32:59.901Z,98589.44
2023-10-11T15:35:28.656Z,98589.10
2023-10-11T15:37:57.203Z,98585.32
2023-10-11T15:40:28.539Z,98582.25
2023-10-11T15:43:01.468Z,98575.85
2023-10-11T15:45:33.420Z,98576.69
2023-10-11T15:48:03.505Z,98580.70
2023-10-11T15:50:33.045Z,98577.86
2023-10-11T15:53:02.190Z,98583.70
2023-10-11T15:55:30.886Z,98580.75
2023-10-11T15:57:59.639Z,98580.19
2023-10-11T16:00:33.016Z,98585.42
2023-10-11T16:03:06.762Z,98589.91
2023-10-11T16:05:35.999Z,98588.95
2023-10-11T16:08:07.949Z,98591.68
2023-10-11T16:10:36.770Z,98590.42
2023-10-11T16:13:05.494Z,98588.08
2023-10-11T16:15:34.393Z,98586.79
2023-10-11T16:18:04.631Z,98585.34
2023-10-11T16:20:33.559Z,98584.77
2023-10-11T16:23:02.500Z,98590.52
2023-10-11T16:25:38.258Z,98590.82
2023-10-11T16:28:11.177Z,98592.33
2023-10-11T16:30:41.041Z,98589.39
2023-10-11T16:33:10.061Z,98587.19
2023-10-11T16:35:39.469Z,98584.80
2023-10-11T16:38:09.100Z,98586.98
2023-10-11T16:40:37.765Z,98593.53
2023-10-11T16:43:07.016Z,98593.44
2023-10-11T16:45:39.602Z,98589.79
2023-10-11T16:48:20.259Z,98591.38
2023-10-11T16:50:50.474Z,98590.50
2023-10-11T16:53:19.073Z,98582.98
2023-10-11T16:55:47.861Z,98580.15
2023-10-11T16:58:16.978Z,98580.48
2023-10-11T17:00:46.240Z,98578.06
2023-10-11T17:03:15.460Z,98581.38
2023-10-11T17:06:03.567Z,98586.13
2023-10-11T17:08:44.593Z,98581.10
2023-10-11T17:11:31.597Z,98584.70
2023-10-11T17:14:25.966Z,98586.86
2023-10-11T17:17:04.642Z,98586.16
2023-10-11T17:19:38.357Z,98582.81
2023-10-11T17:22:12.724Z,98583.52
2023-10-11T17:24:56.506Z,98582.40
2023-10-11T17:27:33.408Z,98579.34
2023-10-11T17:30:08.338Z,98585.40
2023-10-11T17:32:47.374Z,98580.25
2023-10-11T17:35:25.873Z,98579.80
2023-10-11T17:37:59.764Z,98582.89
2023-10-11T17:40:33.264Z,98584.04
2023-10-11T17:43:04.951Z,98577.08
2023-10-11T17:45:45.017Z,98580.13
2023-10-11T17:48:15.693Z,98578.78
2023-10-11T17:50:44.887Z,98574.98
2023-10-11T17:53:14.471Z,98572.48
2023-10-11T17:55:44.039Z,98572.73
2023-10-11T17:58:12.717Z,98573.65
2023-10-11T18:00:41.286Z,98575.95
2023-10-11T18:03:11.048Z,98573.67
2023-10-11T18:05:40.731Z,98570.69
2023-10-11T18:08:09.302Z,98566.45
2023-10-11T18:10:39.471Z,98563.10
2023-10-11T18:13:08.618Z,98562.58
2023-10-11T18:15:39.191Z,98562.23
2023-10-11T18:18:10.242Z,98559.28
2023-10-11T18:20:39.614Z,98560.31
2023-10-11T18:23:22.514Z,98560.00
2023-10-11T18:25:53.410Z,98560.56
2023-10-11T18:28:22.103Z,98557.06
2023-10-11T18:30:51.414Z,98555.81
2023-10-11T18:33:22.523Z,98550.58
2023-10-11T18:35:51.130Z,98544.79
2023-10-11T18:38:19.643Z,98542.83
2023-10-11T18:40:49.933Z,98542.27
2023-10-11T18:43:18.886Z,98545.03
2023-10-11T18:45:47.488Z,98543.63
2023-10-11T18:48:16.623Z,98545.03
2023-10-11T18:50:46.530Z,98544.69
2023-10-11T18:53:15.040Z,98537.83
2023-10-11T18:55:44.718Z,98538.66
2023-10-11T18:58:13.661Z,98535.31
2023-10-11T19:00:42.545Z,98533.30
2023-10-11T19:03:11.936Z,98536.23
2023-10-11T19:05:43.027Z,98536.73
2023-10-11T19:08:15.096Z,98539.35
2023-10-11T19:10:44.065Z,98538.48
2023-10-11T19:13:17.142Z,98540.78
2023-10-11T19:15:46.026Z,98539.94
2023-10-11T19:18:18.424Z,98540.17
2023-10-11T19:20:47.760Z,98539.32
2023-10-11T19:23:18.672Z,98541.45
2023-10-11T19:26:00.079Z,98541.65
2023-10-11T19:28:31.866Z,98539.73
2023-10-11T19:31:01.383Z,98536.19
2023-10-11T19:33:31.248Z,98537.58
2023-10-11T19:36:14.411Z,98537.42
2023-10-11T19:38:43.053Z,98534.16
2023-10-11T19:41:12.751Z,98535.27
2023-10-11T19:43:41.791Z,98535.08
2023-10-11T19:46:14.915Z,98539.66
2023-10-11T19:48:44.698Z,98541.38
2023-10-11T19:51:15.746Z,98545.06
2023-10-11T19:53:44.625Z,98545.27
2023-10-11T19:56:15.570Z,98540.71
2023-10-11T19:58:47.192Z,98542.30
2023-10-11T20:01:24.686Z,98543.52
2023-10-11T20:03:54.883Z,98543.35
2023-10-11T20:06:24.333Z,98545.11
2023-10-11T20:08:55.143Z,98547.40
2023-10-11T20:11:24.848Z,98548.80
2023-10-11T20:13:54.425Z,98555.45
2023-10-11T20:16:23.222Z,98557.03
2023-10-11T20:18:52.187Z,98559.17
2023-10-11T20:21:21.832Z,98560.48
2023-10-11T20:23:56.095Z,98564.03
2023-10-11T20:26:26.219Z,98563.93
2023-10-11T20:28:58.674Z,98564.00
2023-10-11T20:31:27.584Z,98565.70
2023-10-11T20:33:58.605Z,98565.62
2023-10-11T20:36:27.679Z,98565.19
2023-10-11T20:38:56.912Z,98566.70
2023-10-11T20:41:25.564Z,98564.46
2023-10-11T20:43:55.247Z,98565.36
2023-10-11T20:46:24.766Z,98560.83
2023-10-11T20:48:56.641Z,98560.00
2023-10-11T20:51:26.405Z,98556.36
2023-10-11T20:53:57.190Z,98553.45
2023-10-11T20:56:29.595Z,98550.89
2023-10-11T20:59:07.745Z,98544.14
2023-10-11T21:01:38.183Z,98536.86
2023-10-11T21:04:07.643Z,98533.09
2023-10-11T21:06:36.427Z,98528.39
2023-10-11T21:09:06.133Z,98522.96
2023-10-11T21:11:35.198Z,98524.10
2023-10-11T21:14:04.513Z,98520.48
2023-10-11T21:16:35.616Z,98522.98
2023-10-11T21:19:04.678Z,98522.20
2023-10-11T21:21:34.105Z,98518.63
2023-10-11T21:24:02.825Z,98514.89
2023-10-11T21:26:32.425Z,98507.98
2023-10-11T21:29:02.212Z,98502.64
2023-10-11T21:31:33.612Z,98500.84
2023-10-11T21:34:02.789Z,98495.92
2023-10-11T21:36:31.360Z,98498.77
2023-10-11T21:39:00.255Z,98495.10
2023-10-11T21:41:29.286Z,98489.35
2023-10-11T21:43:57.777Z,98489.03
2023-10-11T21:46:26.733Z,98487.10
2023-10-11T21:48:55.840Z,98479.75
2023-10-11T21:51:26.069Z,98479.42
2023-10-11T21:53:55.953Z,98481.16
2023-10-11T21:56:27.202Z,98479.41
2023-10-11T21:58:55.698Z,98476.81
2023-10-11T22:01:25.769Z,98475.58
2023-10-11T22:03:56.930Z,98476.64
2023-10-11T22:06:26.634Z,98472.46
2023-10-11T22:08:56.854Z,98474.44
2023-10-11T22:11:28.748Z,98470.31
2023-10-11T22:14:01.167Z,98469.38
2023-10-11T22:16:30.469Z,98470.68
2023-10-11T22:19:00.469Z,98475.30
2023-10-11T22:21:29.104Z,98474.83
2023-10-11T22:23:58.464Z,98475.21
2023-10-11T22:26:27.888Z,98473.70
2023-10-11T22:28:56.534Z,98477.77
2023-10-11T22:31:26.034Z,98478.69
2023-10-11T22:33:56.227Z,98479.14
2023-10-11T22:36:30.656Z,98481.69
2023-10-11T22:39:01.980Z,98477.21
2023-10-11T22:41:31.310Z,98477.48
2023-10-11T22:44:00.173Z,98475.62
2023-10-11T22:46:28.896Z,98471.84
2023-10-11T22:48:57.899Z,98468.95
2023-10-11T22:51:29.029Z,98468.61
2023-10-11T22:54:02.038Z,98469.48
2023-10-11T22:56:32.156Z,98464.05
2023-10-11T22:59:06.064Z,98463.50
2023-10-11T23:01:38.646Z,98461.10
2023-10-11T23:04:09.217Z,98461.86
2023-10-11T23:06:38.686Z,98462.43
2023-10-11T23:09:07.567Z,98461.10
2023-10-11T23:11:44.243Z,98464.76
2023-10-11T23:14:13.274Z,98461.94
2023-10-11T23:16:42.073Z,98465.05
2023-10-11T23:19:20.799Z,98459.77
2023-10-11T23:21:54.503Z,98455.57
2023-10-11T23:24:42.507Z,98454.31
2023-10-11T23:27:12.859Z,98452.55
2023-10-11T23:29:41.484Z,98448.18
2023-10-11T23:32:13.793Z,98446.10
2023-10-11T23:34:43.115Z,98442.66
2023-10-11T23:37:16.560Z,98439.20
2023-10-11T23:40:05.615Z,98437.29
2023-10-11T23:42:36.194Z,98433.46
2023-10-11T23:45:17.149Z,98430.46
2023-10-11T23:47:49.456Z,98432.70
2023-10-11T23:50:22.411Z,98434.05
2023-10-11T23:53:16.611Z,98434.58
2023-10-11T23:55:45.581Z,98428.80
2023-10-11T23:58:22.746Z,98427.75
